Time;durP1;ratioP1;P1;durP2;ratioP2;P2;SDS_P1;SDS_P2;PMS_P1;PMS_P2;Temp;Humidity;BMP_temperature;BMP_pressure;BME280_temperature;BME280_humidity;BME280_pressure;Samples;Min_cycle;Max_cycle;Signal;HPM_P1;HPM_P2
2023/03/24 00:01:51;;;;;;;4.20;3.87;;;;;;;;;;6213442;23;20444;-77
2023/03/24 00:04:22;;;;;;;4.20;3.80;;;;;;;;;;6213746;23;20422;-78
2023/03/24 00:06:52;;;;;;;4.60;4.20;;;;;;;;;;6213825;23;20798;-79
2023/03/24 00:09:27;;;;;;;4.70;4.03;;;;;;;;;;6215081;23;20415;-79
2023/03/24 00:11:55;;;;;;;5.57;3.60;;;;;;;;;;6215971;23;20480;-77
2023/03/24 00:14:23;;;;;;;5.13;4.23;;;;;;;;;;6215568;23;20433;-81
2023/03/24 00:16:58;;;;;;;4.57;4.17;;;;;;;;;;6216617;23;20417;-77
2023/03/24 00:19:40;;;;;;;3.63;3.30;;;;;;;;;;6217123;23;20432;-78
2023/03/24 00:22:15;;;;;;;4.50;4.13;;;;;;;;;;6216673;23;20795;-78
2023/03/24 00:37:36;;;;;;;3.13;2.90;;;;;;;;;;6027868;23;20411;-77
2023/03/24 00:40:18;;;;;;;3.50;3.20;;;;;;;;;;6046805;23;20421;-78
2023/03/24 00:42:50;;;;;;;3.40;3.20;;;;;;;;;;6186730;23;20813;-79
2023/03/24 00:45:19;;;;;;;3.10;2.90;;;;;;;;;;6187138;23;20423;-78
2023/03/24 00:53:10;;;;;;;3.27;3.07;;;;;;;;;;6188153;23;20410;-78
2023/03/24 01:26:40;;;;;;;3.00;2.60;;;;;;;;;;6000621;23;20592;-77
2023/03/24 01:29:16;;;;;;;3.37;3.07;;;;;;;;;;6067687;23;20610;-77
2023/03/24 01:31:46;;;;;;;2.80;2.63;;;;;;;;;;6228961;23;20414;-82
2023/03/24 01:37:11;;;;;;;3.27;2.97;;;;;;;;;;6230175;23;20397;-78
2023/03/24 01:42:38;;;;;;;5.10;3.60;;;;;;;;;;6226682;23;20445;-77
2023/03/24 01:45:22;;;;;;;3.27;2.63;;;;;;;;;;6223784;23;20529;-76
2023/03/24 01:47:55;;;;;;;3.03;2.83;;;;;;;;;;6223041;23;20410;-76
2023/03/24 01:50:28;;;;;;;3.30;3.10;;;;;;;;;;6223492;23;20409;-77
2023/03/24 01:53:05;;;;;;;3.10;2.60;;;;;;;;;;6223353;23;20413;-77
2023/03/24 04:33:57;;;;;;;2.80;2.60;;;;;;;;;;6066212;23;20468;-78
2023/03/24 04:36:43;;;;;;;2.60;2.40;;;;;;;;;;6100514;23;20453;-76
2023/03/24 04:39:31;;;;;;;2.93;2.73;;;;;;;;;;6113313;23;20418;-78
2023/03/24 04:45:35;;;;;;;;;;;;;;;;;;;;;
2023/03/24 04:51:52;;;;;;;2.50;2.40;;;;;;;;;;6066458;23;20431;-77
2023/03/24 05:00:43;;;;;;;2.67;2.47;;;;;;;;;;6200559;23;20462;-77
2023/03/24 05:03:19;;;;;;;3.20;2.70;;;;;;;;;;6215746;23;20442;-78
2023/03/24 05:06:00;;;;;;;2.00;1.90;;;;;;;;;;6215233;23;20437;-78
2023/03/24 05:11:35;;;;;;;2.20;2.10;;;;;;;;;;6214424;23;20402;-76
2023/03/24 05:14:15;;;;;;;2.07;1.97;;;;;;;;;;6214634;23;20406;-78
2023/03/24 05:25:35;;;;;;;2.30;2.20;;;;;;;;;;6209555;23;20505;-77
2023/03/24 05:28:08;;;;;;;3.07;2.40;;;;;;;;;;6215222;23;20414;-77
2023/03/24 05:30:43;;;;;;;2.43;2.33;;;;;;;;;;6215654;23;20448;-77
2023/03/24 05:33:13;;;;;;;2.47;2.20;;;;;;;;;;6214736;23;20405;-78
2023/03/24 05:35:45;;;;;;;3.23;3.03;;;;;;;;;;6214129;23;20513;-79
2023/03/24 05:38:21;;;;;;;2.10;2.00;;;;;;;;;;6214121;23;20446;-78
2023/03/24 05:41:08;;;;;;;2.50;2.30;;;;;;;;;;6214977;23;20417;-78
2023/03/24 05:43:50;;;;;;;4.10;2.70;;;;;;;;;;6214139;23;20438;-77
2023/03/24 05:46:30;;;;;;;2.70;2.50;;;;;;;;;;6215030;23;20473;-77
2023/03/24 05:49:26;;;;;;;2.90;2.70;;;;;;;;;;6214879;23;20414;-77
2023/03/24 05:51:59;;;;;;;3.17;2.87;;;;;;;;;;6094271;23;20526;-79
2023/03/24 06:43:48;;;;;;;6.33;4.60;;;;;;;;;;5877703;24;20463;-79
2023/03/24 06:46:25;;;;;;;7.53;5.13;;;;;;;;;;5986719;23;20420;-78
2023/03/24 06:49:12;;;;;;;5.10;3.70;;;;;;;;;;6198869;23;20457;-79
2023/03/24 06:51:55;;;;;;;4.07;3.73;;;;;;;;;;6215017;23;20979;-78
2023/03/24 06:54:57;;;;;;;;;;;;;;;;;;;;;
2023/03/24 06:57:38;;;;;;;;;;;;;;;;;;;;;
2023/03/24 07:00:16;;;;;;;3.87;3.57;;;;;;;;;;6220404;23;20390;-81
2023/03/24 07:02:52;;;;;;;5.83;3.53;;;;;;;;;;6217989;23;20438;-78
2023/03/24 07:05:29;;;;;;;3.93;3.50;;;;;;;;;;6217851;23;20429;-77
2023/03/24 07:08:07;;;;;;;4.73;4.07;;;;;;;;;;6219081;23;20417;-78
2023/03/24 07:10:38;;;;;;;4.60;3.53;;;;;;;;;;6218199;23;20469;-78
2023/03/24 07:13:11;;;;;;;4.27;3.97;;;;;;;;;;6218210;23;20409;-78
2023/03/24 07:15:54;;;;;;;4.80;3.37;;;;;;;;;;6218492;23;20438;-78
2023/03/24 07:18:23;;;;;;;3.90;3.60;;;;;;;;;;6216897;23;20406;-78
2023/03/24 07:36:31;;;;;;;3.83;3.53;;;;;;;;;;6060996;23;20793;-77
2023/03/24 07:39:42;;;;;;;4.20;3.90;;;;;;;;;;6007789;23;20419;-77
2023/03/24 07:57:10;;;;;;;4.47;4.07;;;;;;;;;;6089714;23;20177;-78
2023/03/24 08:02:52;;;;;;;4.77;4.37;;;;;;;;;;6004163;23;20417;-77
2023/03/24 08:06:00;;;;;;;4.80;4.40;;;;;;;;;;6099951;23;20425;-76
2023/03/24 08:12:18;;;;;;;6.57;4.37;;;;;;;;;;6217516;23;20415;-81
2023/03/24 08:15:16;;;;;;;;;;;;;;;;;;;;;
2023/03/24 08:18:10;;;;;;;4.30;4.00;;;;;;;;;;6159977;23;20414;-78
2023/03/24 08:20:49;;;;;;;4.67;4.27;;;;;;;;;;6140399;23;20409;-79
2023/03/24 08:23:31;;;;;;;5.70;4.40;;;;;;;;;;6215783;23;20445;-78
2023/03/24 08:26:00;;;;;;;4.73;4.43;;;;;;;;;;6216413;23;20438;-80
2023/03/24 08:28:34;;;;;;;4.27;3.97;;;;;;;;;;6217037;23;20521;-79
2023/03/24 08:31:02;;;;;;;4.30;3.90;;;;;;;;;;6217820;23;20426;-79
2023/03/24 08:33:37;;;;;;;4.93;4.40;;;;;;;;;;6219335;23;20489;-77
2023/03/24 08:36:20;;;;;;;4.60;4.23;;;;;;;;;;6218880;23;20499;-79
2023/03/24 08:41:38;;;;;;;4.47;4.17;;;;;;;;;;6215035;23;20934;-77
2023/03/24 08:44:13;;;;;;;5.43;5.00;;;;;;;;;;6219679;23;20536;-78
2023/03/24 08:46:41;;;;;;;8.73;5.60;;;;;;;;;;6220365;23;20471;-78
2023/03/24 08:49:09;;;;;;;4.70;4.30;;;;;;;;;;6219245;23;20410;-79
2023/03/24 08:51:51;;;;;;;6.63;5.17;;;;;;;;;;6220683;23;20433;-78
2023/03/24 08:54:24;;;;;;;5.00;4.47;;;;;;;;;;6218914;23;20437;-78
2023/03/24 08:57:00;;;;;;;4.60;4.30;;;;;;;;;;6219294;23;20485;-76
2023/03/24 08:59:45;;;;;;;4.00;3.70;;;;;;;;;;6218873;23;20489;-78
2023/03/24 09:02:44;;;;;;;5.80;3.90;;;;;;;;;;6218124;23;20707;-77
2023/03/24 09:05:16;;;;;;;3.90;3.70;;;;;;;;;;6219899;23;20454;-79
2023/03/24 09:07:50;;;;;;;3.80;3.40;;;;;;;;;;6219238;23;20414;-79
2023/03/24 09:10:18;;;;;;;3.30;3.10;;;;;;;;;;6217918;23;20963;-77
2023/03/24 09:12:49;;;;;;;3.10;2.90;;;;;;;;;;6219690;23;20406;-79
2023/03/24 09:15:18;;;;;;;3.40;3.10;;;;;;;;;;6220231;23;20434;-77
2023/03/24 09:17:48;;;;;;;3.83;3.50;;;;;;;;;;6219933;23;20414;-78
2023/03/24 09:20:17;;;;;;;3.20;3.00;;;;;;;;;;6220661;23;20389;-79
2023/03/24 09:22:47;;;;;;;4.07;3.77;;;;;;;;;;6220778;23;20410;-78
2023/03/24 09:25:37;;;;;;;2.77;2.63;;;;;;;;;;6221667;23;20418;-79
2023/03/24 09:28:24;;;;;;;4.83;3.10;;;;;;;;;;6220766;23;20409;-76
2023/03/24 09:31:02;;;;;;;3.10;2.90;;;;;;;;;;6206126;23;20420;-79
2023/03/24 09:33:34;;;;;;;5.13;3.30;;;;;;;;;;6223654;23;20410;-76
2023/03/24 09:36:13;;;;;;;3.10;2.90;;;;;;;;;;6223766;23;20430;-79
2023/03/24 09:38:52;;;;;;;3.20;2.90;;;;;;;;;;6220623;23;20436;-78
2023/03/24 09:41:37;;;;;;;2.90;2.70;;;;;;;;;;6221316;23;20456;-77
2023/03/24 09:44:25;;;;;;;3.10;2.90;;;;;;;;;;6218296;23;20434;-76
2023/03/24 09:47:10;;;;;;;4.37;3.37;;;;;;;;;;6217810;23;20418;-79
2023/03/24 09:50:00;;;;;;;3.23;3.03;;;;;;;;;;6215343;23;20422;-80
2023/03/24 09:52:42;;;;;;;3.03;2.83;;;;;;;;;;6216224;23;20395;-79
2023/03/24 09:55:21;;;;;;;4.20;3.17;;;;;;;;;;6220267;23;20426;-77
2023/03/24 09:58:00;;;;;;;2.90;2.60;;;;;;;;;;6225940;23;20440;-79
2023/03/24 10:00:39;;;;;;;3.43;3.13;;;;;;;;;;6230208;23;20430;-76
2023/03/24 10:03:27;;;;;;;3.13;2.97;;;;;;;;;;6229668;23;20410;-78
2023/03/24 10:06:20;;;;;;;;;;;;;;;;;;;;;
2023/03/24 10:09:01;;;;;;;2.90;2.70;;;;;;;;;;6224469;23;20398;-79
2023/03/24 10:11:55;;;;;;;3.17;2.87;;;;;;;;;;6225357;23;20417;-77
2023/03/24 10:14:32;;;;;;;3.53;3.23;;;;;;;;;;6226206;23;20429;-77
2023/03/24 10:17:25;;;;;;;3.03;2.77;;;;;;;;;;6227664;23;20417;-76
2023/03/24 10:20:06;;;;;;;2.77;2.57;;;;;;;;;;6223643;23;20421;-77
2023/03/24 10:22:40;;;;;;;2.93;2.73;;;;;;;;;;6227904;23;20386;-79
2023/03/24 10:25:16;;;;;;;2.50;2.40;;;;;;;;;;6228264;23;20442;-76
2023/03/24 10:28:09;;;;;;;2.77;2.33;;;;;;;;;;6228235;23;20410;-77
2023/03/24 11:04:08;;;;;;;1.60;1.50;;;;;;;;;;5985341;24;21394;-79
2023/03/24 11:06:40;;;;;;;1.53;1.43;;;;;;;;;;6037707;23;20918;-77
2023/03/24 11:12:08;;;;;;;1.83;1.73;;;;;;;;;;6047009;23;21083;-78
2023/03/24 11:14:52;;;;;;;1.30;1.30;;;;;;;;;;6103890;23;20426;-78
2023/03/24 11:20:27;;;;;;;2.93;1.30;;;;;;;;;;6165542;23;20412;-77
2023/03/24 12:23:07;;;;;;;0.90;0.90;;;;;;;;;;6066099;23;20417;-78
2023/03/24 12:25:56;;;;;;;1.10;1.00;;;;;;;;;;6144563;23;20519;-78
2023/03/24 12:28:37;;;;;;;0.80;0.80;;;;;;;;;;6166281;23;20415;-79
2023/03/24 12:31:27;;;;;;;1.30;0.90;;;;;;;;;;6165941;23;20450;-79
2023/03/24 12:34:04;;;;;;;0.97;0.90;;;;;;;;;;6169433;23;20464;-79
2023/03/24 12:36:41;;;;;;;7.47;1.00;;;;;;;;;;6165378;23;20423;-78
2023/03/24 12:39:14;;;;;;;1.77;0.77;;;;;;;;;;6160268;23;20478;-78
2023/03/24 12:41:51;;;;;;;0.70;0.70;;;;;;;;;;6160165;23;20412;-78
2023/03/24 12:44:35;;;;;;;0.77;0.77;;;;;;;;;;6162943;23;20443;-78
2023/03/24 12:47:08;;;;;;;1.03;0.80;;;;;;;;;;6165145;23;20408;-81
2023/03/24 12:49:41;;;;;;;0.70;0.70;;;;;;;;;;6167627;23;20373;-77
2023/03/24 12:52:17;;;;;;;0.70;0.70;;;;;;;;;;6169462;23;20763;-78
2023/03/24 12:54:48;;;;;;;1.27;0.87;;;;;;;;;;6170884;23;20423;-77
2023/03/24 12:57:21;;;;;;;1.27;1.03;;;;;;;;;;6170094;23;20412;-78
2023/03/24 12:59:53;;;;;;;0.63;0.63;;;;;;;;;;6169329;23;20412;-78
2023/03/24 13:02:26;;;;;;;0.80;0.80;;;;;;;;;;6169057;23;20396;-78
2023/03/24 13:04:55;;;;;;;0.67;0.67;;;;;;;;;;6170698;23;20471;-79
2023/03/24 13:07:27;;;;;;;0.70;0.70;;;;;;;;;;6171058;23;20416;-77
2023/03/24 13:09:58;;;;;;;1.03;0.67;;;;;;;;;;6173992;23;20466;-78
2023/03/24 13:12:32;;;;;;;0.70;0.70;;;;;;;;;;6177531;23;20397;-78
2023/03/24 13:15:05;;;;;;;0.80;0.70;;;;;;;;;;6177312;23;20938;-78
2023/03/24 13:17:41;;;;;;;0.80;0.80;;;;;;;;;;6175386;23;20416;-79
2023/03/24 13:20:14;;;;;;;0.80;0.80;;;;;;;;;;6173926;23;20411;-75
2023/03/24 13:28:38;;;;;;;0.73;0.60;;;;;;;;;;6153666;23;20411;-77
2023/03/24 13:31:35;;;;;;;;;;;;;;;;;;;;;
2023/03/24 13:34:21;;;;;;;0.50;0.50;;;;;;;;;;6173578;23;20399;-78
2023/03/24 13:37:17;;;;;;;1.00;0.80;;;;;;;;;;6172591;23;20427;-77
2023/03/24 13:39:54;;;;;;;0.70;0.70;;;;;;;;;;6170421;23;20400;-78
2023/03/24 13:42:44;;;;;;;1.50;0.70;;;;;;;;;;6171388;23;20403;-78
2023/03/24 13:45:24;;;;;;;0.80;0.80;;;;;;;;;;6170624;23;20444;-77
2023/03/24 13:48:10;;;;;;;1.13;0.77;;;;;;;;;;6171012;23;20920;-78
2023/03/24 13:50:50;;;;;;;1.80;1.00;;;;;;;;;;6172606;23;20416;-79
2023/03/24 13:53:31;;;;;;;0.63;0.63;;;;;;;;;;6172049;23;20406;-79
2023/03/24 13:56:04;;;;;;;0.80;0.80;;;;;;;;;;6168920;23;20515;-79
2023/03/24 13:58:48;;;;;;;1.00;0.80;;;;;;;;;;6170309;23;20443;-78
2023/03/24 14:01:37;;;;;;;1.13;0.70;;;;;;;;;;6078132;23;20840;-79
2023/03/24 14:07:45;;;;;;;1.40;1.10;;;;;;;;;;6160033;23;20403;-77
2023/03/24 14:10:45;;;;;;;1.40;1.23;;;;;;;;;;6160187;23;20893;-77
2023/03/24 14:13:25;;;;;;;1.17;1.07;;;;;;;;;;6157329;23;20415;-79
2023/03/24 14:16:08;;;;;;;1.37;1.27;;;;;;;;;;6157439;23;20420;-78
2023/03/24 14:18:59;;;;;;;1.13;1.07;;;;;;;;;;6158546;23;20482;-79
2023/03/24 14:21:47;;;;;;;1.00;0.90;;;;;;;;;;6157737;23;20923;-81
2023/03/24 14:24:36;;;;;;;1.30;1.00;;;;;;;;;;6156689;23;20443;-78
2023/03/24 14:30:29;;;;;;;1.57;1.10;;;;;;;;;;6159532;23;20478;-77
2023/03/24 14:33:28;;;;;;;1.00;1.00;;;;;;;;;;6160397;23;20423;-78
2023/03/24 14:36:13;;;;;;;1.67;1.10;;;;;;;;;;6162179;23;20444;-77
2023/03/24 14:38:54;;;;;;;0.90;0.90;;;;;;;;;;6163055;23;20450;-79
2023/03/24 14:44:51;;;;;;;1.20;1.20;;;;;;;;;;6137737;23;20443;-78
2023/03/24 14:47:27;;;;;;;1.10;1.10;;;;;;;;;;6159063;23;20415;-80
2023/03/24 14:50:16;;;;;;;1.63;0.90;;;;;;;;;;6158736;23;20425;-77
2023/03/24 14:52:52;;;;;;;2.10;1.10;;;;;;;;;;6157996;23;20811;-77
2023/03/24 14:55:38;;;;;;;1.00;0.93;;;;;;;;;;6159633;23;20988;-77
2023/03/24 14:58:28;;;;;;;2.70;2.50;;;;;;;;;;6146970;23;20416;-78
2023/03/24 15:01:16;;;;;;;;;;;;;;;;;;;;;
2023/03/24 15:03:55;;;;;;;0.77;0.77;;;;;;;;;;6162335;23;20408;-77
2023/03/24 15:06:25;;;;;;;0.80;0.77;;;;;;;;;;6163002;23;20961;-78
2023/03/24 15:08:57;;;;;;;1.53;1.30;;;;;;;;;;6164268;23;20768;-78
2023/03/24 15:11:38;;;;;;;1.03;0.90;;;;;;;;;;6164013;23;20412;-77
2023/03/24 15:14:17;;;;;;;1.43;1.20;;;;;;;;;;6167427;23;20439;-76
2023/03/24 15:17:04;;;;;;;1.27;0.70;;;;;;;;;;6168683;23;20412;-77
2023/03/24 15:19:45;;;;;;;1.03;1.00;;;;;;;;;;6165967;23;20410;-76
2023/03/24 15:22:29;;;;;;;0.70;0.70;;;;;;;;;;6165684;23;20459;-76
2023/03/24 15:25:03;;;;;;;0.70;0.70;;;;;;;;;;6164472;23;20443;-76
2023/03/24 15:27:51;;;;;;;;;;;;;;;;;;;;;
2023/03/24 15:30:47;;;;;;;2.00;1.13;;;;;;;;;;6161879;23;20384;-74
2023/03/24 15:33:29;;;;;;;2.63;1.10;;;;;;;;;;6161823;23;20420;-74
2023/03/24 15:39:04;;;;;;;1.40;1.30;;;;;;;;;;6158896;23;20944;-76
2023/03/24 15:41:45;;;;;;;1.57;1.47;;;;;;;;;;6161438;23;20407;-76
2023/03/24 15:47:43;;;;;;;2.17;1.30;;;;;;;;;;6158846;23;20473;-78
2023/03/24 15:50:28;;;;;;;2.87;1.20;;;;;;;;;;6161211;23;20416;-76
2023/03/24 15:53:11;;;;;;;2.10;1.63;;;;;;;;;;6159992;23;20435;-76
2023/03/24 15:58:37;;;;;;;1.53;1.00;;;;;;;;;;6157142;23;20732;-79
2023/03/24 16:01:17;;;;;;;0.90;0.90;;;;;;;;;;6163657;23;20435;-78
2023/03/24 16:04:03;;;;;;;1.10;1.10;;;;;;;;;;6162626;23;20419;-77
2023/03/24 16:07:02;;;;;;;1.20;1.20;;;;;;;;;;6161403;23;20443;-78
2023/03/24 16:09:46;;;;;;;0.93;0.93;;;;;;;;;;6153887;23;20481;-76
2023/03/24 16:12:27;;;;;;;1.40;1.30;;;;;;;;;;6156861;23;20412;-77
2023/03/24 16:15:03;;;;;;;1.17;0.90;;;;;;;;;;6166161;23;20431;-77
2023/03/24 16:17:43;;;;;;;0.90;0.90;;;;;;;;;;6168276;23;20391;-77
2023/03/24 16:23:17;;;;;;;1.17;1.03;;;;;;;;;;6159684;23;20784;-78
2023/03/24 16:25:51;;;;;;;0.97;0.97;;;;;;;;;;6163376;23;20454;-76
2023/03/24 16:28:44;;;;;;;1.27;1.10;;;;;;;;;;6163847;23;20491;-77
2023/03/24 16:31:20;;;;;;;0.93;0.93;;;;;;;;;;6165346;23;20436;-77
2023/03/24 16:33:59;;;;;;;1.17;1.10;;;;;;;;;;6164416;23;20874;-77
2023/03/24 16:36:49;;;;;;;1.20;1.10;;;;;;;;;;6164080;23;20415;-77
2023/03/24 16:42:32;;;;;;;1.40;1.30;;;;;;;;;;6156444;23;20422;-78
2023/03/24 16:45:28;;;;;;;1.37;1.27;;;;;;;;;;6160811;23;20618;-76
2023/03/24 16:48:02;;;;;;;1.40;1.30;;;;;;;;;;6161859;23;20480;-78
2023/03/24 16:50:36;;;;;;;1.50;1.40;;;;;;;;;;6161661;23;20487;-77
2023/03/24 16:53:11;;;;;;;2.93;1.60;;;;;;;;;;6162793;23;20436;-76
2023/03/24 16:55:45;;;;;;;1.90;1.80;;;;;;;;;;6160151;23;20438;-77
2023/03/24 16:58:20;;;;;;;2.27;1.90;;;;;;;;;;6161612;23;20419;-77
2023/03/24 17:00:58;;;;;;;1.93;1.60;;;;;;;;;;6161559;23;20411;-77
2023/03/24 17:03:28;;;;;;;1.90;1.80;;;;;;;;;;6158995;23;20381;-77
2023/03/24 17:06:02;;;;;;;1.80;1.70;;;;;;;;;;6158870;23;21002;-77
2023/03/24 17:08:36;;;;;;;2.20;1.57;;;;;;;;;;6160391;23;20412;-78
2023/03/24 17:11:14;;;;;;;2.60;2.40;;;;;;;;;;6160924;23;20419;-78
2023/03/24 17:13:56;;;;;;;1.90;1.77;;;;;;;;;;6159849;23;20808;-78
2023/03/24 17:16:33;;;;;;;1.50;1.40;;;;;;;;;;6157907;23;20458;-77
2023/03/24 17:19:13;;;;;;;1.90;1.80;;;;;;;;;;6157504;23;20416;-77
2023/03/24 17:21:54;;;;;;;1.60;1.50;;;;;;;;;;6160141;23;20507;-77
2023/03/24 17:24:24;;;;;;;1.50;1.40;;;;;;;;;;6159539;23;20444;-77
2023/03/24 17:26:54;;;;;;;1.90;1.80;;;;;;;;;;6159167;23;20444;-77
2023/03/24 17:29:23;;;;;;;1.93;1.83;;;;;;;;;;6163095;23;20438;-77
2023/03/24 17:31:59;;;;;;;2.33;2.00;;;;;;;;;;6164103;23;20412;-77
2023/03/24 17:34:34;;;;;;;1.93;1.80;;;;;;;;;;6164370;23;20440;-77
2023/03/24 17:37:13;;;;;;;3.70;2.10;;;;;;;;;;6161954;23;20411;-76
2023/03/24 17:39:44;;;;;;;2.50;1.90;;;;;;;;;;6163932;23;20490;-76
2023/03/24 17:42:13;;;;;;;3.50;2.37;;;;;;;;;;6164101;23;20450;-78
2023/03/24 17:44:48;;;;;;;3.20;2.13;;;;;;;;;;6163806;23;20436;-78
2023/03/24 17:47:28;;;;;;;2.43;2.23;;;;;;;;;;6162046;23;20458;-77
2023/03/24 17:50:08;;;;;;;1.93;1.83;;;;;;;;;;6161773;23;20431;-77
2023/03/24 17:52:36;;;;;;;2.33;2.23;;;;;;;;;;6161406;23;20491;-78
2023/03/24 17:55:06;;;;;;;3.13;1.97;;;;;;;;;;6161190;23;20420;-79
2023/03/24 17:57:37;;;;;;;2.77;2.50;;;;;;;;;;6161245;23;20416;-77
2023/03/24 18:00:09;;;;;;;4.70;2.30;;;;;;;;;;6160168;23;20514;-77
2023/03/24 18:02:52;;;;;;;2.20;2.03;;;;;;;;;;6159300;23;20416;-78
2023/03/24 18:05:37;;;;;;;2.17;2.03;;;;;;;;;;6158640;23;20507;-77
2023/03/24 18:08:12;;;;;;;1.87;1.77;;;;;;;;;;6159225;23;20960;-77
2023/03/24 18:10:45;;;;;;;2.43;2.23;;;;;;;;;;6157148;23;20416;-77
2023/03/24 18:13:19;;;;;;;2.53;2.33;;;;;;;;;;6157878;23;20483;-76
2023/03/24 18:15:50;;;;;;;2.30;2.20;;;;;;;;;;6159023;23;20463;-78
2023/03/24 18:18:20;;;;;;;3.27;2.50;;;;;;;;;;6159118;23;20446;-77
2023/03/24 18:20:56;;;;;;;2.50;2.30;;;;;;;;;;6161899;23;20442;-75
2023/03/24 18:23:25;;;;;;;2.53;2.33;;;;;;;;;;6159657;23;20416;-75
2023/03/24 18:26:03;;;;;;;2.10;1.90;;;;;;;;;;6157660;23;20440;-77
2023/03/24 18:28:31;;;;;;;2.50;2.27;;;;;;;;;;6160253;23;20482;-76
2023/03/24 18:30:59;;;;;;;2.50;2.30;;;;;;;;;;6160662;23;20486;-76
2023/03/24 18:33:33;;;;;;;2.27;2.13;;;;;;;;;;6159968;23;20412;-76
2023/03/24 18:36:04;;;;;;;3.70;3.40;;;;;;;;;;6160072;23;20483;-75
2023/03/24 18:38:35;;;;;;;7.23;2.67;;;;;;;;;;6161149;23;20784;-77
2023/03/24 18:43:57;;;;;;;2.30;2.10;;;;;;;;;;6147126;23;20393;-76
2023/03/24 18:46:30;;;;;;;2.87;2.30;;;;;;;;;;6162858;23;20443;-76
2023/03/24 18:49:05;;;;;;;1.70;1.60;;;;;;;;;;6160989;23;20412;-76
2023/03/24 18:51:34;;;;;;;2.40;2.20;;;;;;;;;;6161269;23;20423;-76
2023/03/24 18:54:02;;;;;;;2.60;2.10;;;;;;;;;;6161999;23;20431;-76
2023/03/24 18:56:30;;;;;;;2.10;2.00;;;;;;;;;;6161775;23;20443;-76
2023/03/24 18:59:00;;;;;;;1.97;1.87;;;;;;;;;;6162797;23;20422;-76
2023/03/24 19:01:31;;;;;;;2.77;2.57;;;;;;;;;;6166476;23;20420;-78
2023/03/24 19:04:01;;;;;;;2.13;2.03;;;;;;;;;;6167831;23;20886;-76
2023/03/24 19:06:36;;;;;;;2.50;2.10;;;;;;;;;;6163123;23;20435;-77
2023/03/24 19:09:07;;;;;;;2.70;2.50;;;;;;;;;;6162398;23;20454;-77
2023/03/24 19:11:40;;;;;;;3.57;2.43;;;;;;;;;;6160510;23;20462;-77
2023/03/24 19:14:07;;;;;;;2.60;2.20;;;;;;;;;;6161345;23;20411;-76
2023/03/24 19:16:38;;;;;;;3.10;2.90;;;;;;;;;;6163950;23;20477;-76
2023/03/24 19:19:11;;;;;;;2.90;2.70;;;;;;;;;;6163258;23;20420;-78
2023/03/24 19:21:48;;;;;;;2.90;2.70;;;;;;;;;;6160070;23;20408;-77
2023/03/24 19:24:20;;;;;;;2.60;2.40;;;;;;;;;;6162849;23;20455;-77
2023/03/24 19:26:52;;;;;;;2.87;2.70;;;;;;;;;;6163403;23;20446;-76
2023/03/24 19:29:21;;;;;;;3.20;2.43;;;;;;;;;;6160526;23;20412;-77
2023/03/24 19:32:07;;;;;;;2.57;2.40;;;;;;;;;;6161057;23;20415;-76
2023/03/24 19:34:37;;;;;;;2.73;2.53;;;;;;;;;;6160732;23;20459;-77
2023/03/24 19:37:16;;;;;;;2.80;2.40;;;;;;;;;;6160693;23;20427;-78
2023/03/24 19:39:44;;;;;;;2.67;2.43;;;;;;;;;;6157103;23;20490;-76
2023/03/24 19:42:17;;;;;;;4.07;2.47;;;;;;;;;;6128285;23;20408;-76
2023/03/24 19:44:46;;;;;;;2.27;2.10;;;;;;;;;;6128251;23;20427;-76
2023/03/24 19:47:15;;;;;;;2.33;2.17;;;;;;;;;;6130355;23;20448;-76
2023/03/24 19:49:47;;;;;;;2.70;2.50;;;;;;;;;;6129129;23;20447;-76
2023/03/24 19:55:07;;;;;;;2.50;2.30;;;;;;;;;;6123189;23;20417;-77
2023/03/24 19:57:35;;;;;;;2.40;2.20;;;;;;;;;;6128608;23;20472;-77
2023/03/24 20:00:09;;;;;;;2.70;2.50;;;;;;;;;;6127018;23;20924;-77
2023/03/24 20:02:54;;;;;;;2.30;2.10;;;;;;;;;;6126188;23;20419;-77
2023/03/24 20:05:38;;;;;;;2.80;2.60;;;;;;;;;;6126353;23;20549;-78
2023/03/24 20:08:26;;;;;;;2.37;2.20;;;;;;;;;;6128507;23;20420;-76
2023/03/24 20:11:02;;;;;;;2.97;2.67;;;;;;;;;;6126657;23;20408;-77
2023/03/24 20:13:40;;;;;;;2.57;2.37;;;;;;;;;;6127568;23;20412;-76
2023/03/24 20:16:13;;;;;;;2.73;2.50;;;;;;;;;;6127209;23;21085;-76
2023/03/24 20:18:51;;;;;;;2.90;2.70;;;;;;;;;;6128175;23;20415;-77
2023/03/24 20:21:31;;;;;;;2.17;2.07;;;;;;;;;;6126891;23;20412;-77
2023/03/24 20:23:59;;;;;;;3.37;3.03;;;;;;;;;;6125936;23;20444;-77
2023/03/24 20:26:29;;;;;;;3.17;2.70;;;;;;;;;;6128447;23;20437;-77
2023/03/24 20:29:02;;;;;;;2.37;2.17;;;;;;;;;;6129279;23;20416;-78
2023/03/24 20:31:35;;;;;;;2.80;2.60;;;;;;;;;;6129463;23;20713;-78
2023/03/24 20:37:02;;;;;;;2.83;2.60;;;;;;;;;;6126123;23;20417;-76
2023/03/24 20:39:32;;;;;;;2.70;2.50;;;;;;;;;;6127326;23;20408;-77
2023/03/24 20:45:05;;;;;;;;;;;;;;;;;;;;;
2023/03/24 20:47:38;;;;;;;2.40;2.30;;;;;;;;;;6129826;23;20432;-76
2023/03/24 20:50:11;;;;;;;2.80;2.60;;;;;;;;;;6129332;23;20412;-77
2023/03/24 20:52:48;;;;;;;2.70;2.50;;;;;;;;;;6128708;23;20417;-77
2023/03/24 21:01:23;;;;;;;2.37;2.20;;;;;;;;;;6088558;23;20405;-77
2023/03/24 21:04:11;;;;;;;5.13;1.90;;;;;;;;;;6139954;23;20405;-76
2023/03/24 21:06:57;;;;;;;;;;;;;;;;;;;;;
2023/03/24 21:09:45;;;;;;;2.90;2.70;;;;;;;;;;6142604;23;20423;-76
2023/03/24 21:12:22;;;;;;;3.83;2.67;;;;;;;;;;6140277;23;20795;-77
2023/03/24 21:15:08;;;;;;;2.37;2.27;;;;;;;;;;6141038;23;20467;-76
2023/03/24 21:18:03;;;;;;;3.10;2.90;;;;;;;;;;6138878;23;20417;-79
2023/03/24 21:20:53;;;;;;;2.67;2.47;;;;;;;;;;6075234;23;20417;-77
2023/03/24 21:23:43;;;;;;;3.17;2.53;;;;;;;;;;6140834;23;20440;-77
2023/03/24 21:26:29;;;;;;;2.53;2.33;;;;;;;;;;6143938;23;20475;-76
2023/03/24 21:29:21;;;;;;;2.30;2.20;;;;;;;;;;6143082;23;20805;-76
2023/03/24 21:32:20;;;;;;;2.37;2.13;;;;;;;;;;6143072;23;21212;-76
2023/03/24 21:35:31;;;;;;;2.10;2.00;;;;;;;;;;6143956;23;20412;-76
2023/03/24 21:38:09;;;;;;;2.67;2.47;;;;;;;;;;6147358;23;20405;-77
2023/03/24 21:40:47;;;;;;;2.03;1.93;;;;;;;;;;6148747;23;20419;-77
2023/03/24 21:43:45;;;;;;;2.57;2.30;;;;;;;;;;6146434;23;20480;-77
2023/03/24 21:46:26;;;;;;;3.70;2.60;;;;;;;;;;6145364;23;20429;-76
2023/03/24 21:49:13;;;;;;;2.00;1.90;;;;;;;;;;6145211;23;20409;-77
2023/03/24 21:51:56;;;;;;;3.17;2.30;;;;;;;;;;6137315;23;20408;-78
2023/03/24 21:54:41;;;;;;;2.20;2.00;;;;;;;;;;6132055;23;20428;-78
2023/03/24 22:00:22;;;;;;;13.83;8.80;;;;;;;;;;6131076;23;20397;-76
2023/03/24 22:03:05;;;;;;;8.70;6.50;;;;;;;;;;6131758;23;20435;-76
2023/03/24 22:05:45;;;;;;;2.00;1.90;;;;;;;;;;6130305;23;20495;-77
2023/03/24 22:08:30;;;;;;;2.43;2.20;;;;;;;;;;6135613;23;20541;-76
2023/03/24 22:11:18;;;;;;;;;;;;;;;;;;;;;
2023/03/24 22:13:57;;;;;;;1.93;1.83;;;;;;;;;;6138716;23;20412;-77
2023/03/24 22:16:38;;;;;;;2.33;2.13;;;;;;;;;;6136205;23;20468;-76
2023/03/24 22:21:56;;;;;;;4.70;2.10;;;;;;;;;;6134616;23;20409;-77
2023/03/24 22:24:28;;;;;;;3.40;2.43;;;;;;;;;;6136877;23;21025;-78
2023/03/24 22:26:59;;;;;;;2.27;2.07;;;;;;;;;;6133784;23;20440;-76
2023/03/24 22:29:28;;;;;;;4.20;1.90;;;;;;;;;;6132494;23;20417;-75
2023/03/24 22:31:59;;;;;;;4.53;2.27;;;;;;;;;;6134906;23;20469;-77
2023/03/24 22:34:30;;;;;;;2.10;2.00;;;;;;;;;;6134219;23;20443;-77
2023/03/24 22:37:02;;;;;;;3.27;2.00;;;;;;;;;;6134147;23;20409;-75
2023/03/24 22:39:36;;;;;;;2.80;1.80;;;;;;;;;;6133042;23;20412;-77
2023/03/24 22:42:11;;;;;;;1.93;1.83;;;;;;;;;;6133861;23;20504;-78
2023/03/24 22:44:40;;;;;;;2.47;2.23;;;;;;;;;;6131638;23;20440;-77
2023/03/24 22:47:18;;;;;;;3.00;1.97;;;;;;;;;;6131725;23;20429;-76
2023/03/24 22:49:56;;;;;;;4.90;2.57;;;;;;;;;;6132572;23;20417;-76
2023/03/24 22:55:32;;;;;;;1.80;1.70;;;;;;;;;;6121021;23;20432;-75
2023/03/24 23:01:02;;;;;;;2.43;2.20;;;;;;;;;;6120019;23;20413;-76
2023/03/24 23:03:53;;;;;;;1.80;1.70;;;;;;;;;;6126620;23;20910;-76
2023/03/24 23:06:31;;;;;;;3.57;1.80;;;;;;;;;;6127462;23;20412;-75
2023/03/24 23:09:06;;;;;;;2.80;1.97;;;;;;;;;;6129287;23;20408;-75
2023/03/24 23:11:40;;;;;;;1.57;1.37;;;;;;;;;;6129080;23;20427;-76
2023/03/24 23:14:44;;;;;;;2.03;1.73;;;;;;;;;;6127583;23;20471;-75
2023/03/24 23:17:16;;;;;;;4.10;2.00;;;;;;;;;;6091115;23;20420;-75
2023/03/24 23:23:00;;;;;;;1.63;1.53;;;;;;;;;;6035948;23;20439;-75
2023/03/24 23:25:33;;;;;;;1.90;1.73;;;;;;;;;;6053780;23;20530;-74
2023/03/24 23:28:15;;;;;;;3.17;2.07;;;;;;;;;;6125962;23;20444;-76
2023/03/24 23:30:53;;;;;;;1.30;1.30;;;;;;;;;;6126144;23;20401;-74
2023/03/24 23:33:26;;;;;;;4.30;1.70;;;;;;;;;;6124614;23;20459;-75
2023/03/24 23:36:00;;;;;;;1.53;1.43;;;;;;;;;;6124980;23;20421;-76
2023/03/24 23:38:34;;;;;;;1.80;1.50;;;;;;;;;;6124802;23;20904;-75
2023/03/24 23:41:13;;;;;;;1.87;1.43;;;;;;;;;;6125615;23;20545;-76
2023/03/24 23:43:44;;;;;;;2.27;1.60;;;;;;;;;;6124346;23;20424;-75
2023/03/24 23:46:18;;;;;;;1.43;1.43;;;;;;;;;;6125284;23;20912;-75
2023/03/24 23:48:55;;;;;;;1.30;1.13;;;;;;;;;;6125002;23;20436;-76
2023/03/24 23:51:31;;;;;;;1.60;1.40;;;;;;;;;;6125213;23;20879;-76
2023/03/24 23:54:08;;;;;;;1.27;1.13;;;;;;;;;;6125490;23;20417;-77
2023/03/24 23:56:37;;;;;;;1.40;1.23;;;;;;;;;;6124130;23;20424;-74
2023/03/24 23:59:20;;;;;;;1.17;0.83;;;;;;;;;;6126408;23;20405;-75
